Погода Бела-Виста-ди-Гоясна неделю

Гояс, Бразилия

13 - 19 июля
  • 13июля
    Сегодня
    +16°
    +31°
    Ясно и безоблачно
    ВремяПогодаТемператураВлажностьДавлениеВетер, м/сВероятность осадков
    00:00Ясно и безоблачно+20°C48 %695 мм3.5 м/с5 %
    03:00Ясно и безоблачно+18°C53 %694 мм3.4 м/с5 %
    06:00Ясно и безоблачно+17°C55 %694 мм4.1 м/с5 %
    09:00Ясно и безоблачно+22°C41 %696 мм4.6 м/с5 %
    12:00Ясно и безоблачно+28°C26 %697 мм4.6 м/с5 %
    15:00Ясно и безоблачно+30°C20 %695 мм3.8 м/с5 %
    18:00Ясно и безоблачно+26°C29 %695 мм2.2 м/с5 %
    21:00Ясно и безоблачно+22°C37 %695 мм3.0 м/с5 %
  • 14июля
    Воскресенье
    +15°
    +31°
    Ясно и безоблачно
    ВремяПогодаТемператураВлажностьДавлениеВетер, м/сВероятность осадков
    00:00Ясно и безоблачно+18°C44 %695 мм3.8 м/с5 %
    03:00Ясно и безоблачно+17°C46 %693 мм3.3 м/с5 %
    06:00Ясно и безоблачно+17°C49 %694 мм4.1 м/с5 %
    09:00Ясно и безоблачно+20°C41 %696 мм4.6 м/с5 %
    12:00Ясно и безоблачно+27°C27 %696 мм3.3 м/с5 %
    15:00Ясно и безоблачно+29°C23 %694 мм1.6 м/с5 %
    18:00Ясно и безоблачно+26°C31 %694 мм2.0 м/с5 %
    21:00Ясно и безоблачно+23°C37 %695 мм3.0 м/с5 %
  • 15июля
    Понедельник
    +15°
    +31°
    Ясно и безоблачно
    ВремяПогодаТемператураВлажностьДавлениеВетер, м/сВероятность осадков
    00:00Ясно и безоблачно+18°C47 %694 мм4.3 м/с5 %
    03:00Ясно и безоблачно+17°C55 %693 мм4.1 м/с5 %
    06:00Ясно и безоблачно+16°C58 %693 мм3.1 м/с5 %
    09:00Ясно и безоблачно+22°C42 %696 мм3.0 м/с5 %
    12:00Ясно и безоблачно+28°C25 %697 мм2.1 м/с5 %
    15:00Ясно и безоблачно+31°C23 %695 мм1.3 м/с5 %
    18:00Небольшая облачность+28°C28 %695 мм1.9 м/с5 %
    21:00Ясно и безоблачно+23°C35 %695 мм2.3 м/с5 %
  • 16июля
    Вторник
    +16°
    +31°
    Облачно с прояснениями
    ВремяПогодаТемператураВлажностьДавлениеВетер, м/сВероятность осадков
    00:00Практически безоблачно+19°C48 %695 мм4.4 м/с5 %
    03:00Практически безоблачно+17°C55 %694 мм3.6 м/с5 %
    06:00Небольшая облачность+16°C58 %694 мм3.0 м/с5 %
    09:00Небольшая облачность+22°C39 %696 мм3.1 м/с5 %
    12:00Практически безоблачно+28°C27 %697 мм2.4 м/с5 %
    15:00Облачно с прояснениями+31°C24 %695 мм1.5 м/с5 %
    18:00Облачно с прояснениями+28°C31 %695 мм2.0 м/с5 %
    21:00Небольшая облачность+24°C34 %696 мм2.5 м/с5 %
Мы используем cookies
Соглашаюсь